sensor_id;sensor_type;location;lat;lon;timestamp;P1;durP1;ratioP1;P2;durP2;ratioP2
16033;SDS011;8121;51.418;6.998;2024-01-11T00:01:45;24.03;;;9.40;;
16033;SDS011;8121;51.418;6.998;2024-01-11T00:06:49;20.73;;;9.00;;
16033;SDS011;8121;51.418;6.998;2024-01-11T00:11:51;26.73;;;11.50;;
16033;SDS011;8121;51.418;6.998;2024-01-11T00:16:52;30.40;;;12.63;;
16033;SDS011;8121;51.418;6.998;2024-01-11T00:21:55;35.80;;;13.60;;
16033;SDS011;8121;51.418;6.998;2024-01-11T00:26:57;26.13;;;12.90;;
16033;SDS011;8121;51.418;6.998;2024-01-11T00:31:58;28.33;;;12.80;;
16033;SDS011;8121;51.418;6.998;2024-01-11T00:37:01;20.83;;;9.43;;
16033;SDS011;8121;51.418;6.998;2024-01-11T00:42:03;26.93;;;11.40;;
16033;SDS011;8121;51.418;6.998;2024-01-11T00:47:05;26.60;;;10.77;;
16033;SDS011;8121;51.418;6.998;2024-01-11T00:52:08;33.17;;;14.50;;
16033;SDS011;8121;51.418;6.998;2024-01-11T00:57:09;26.67;;;11.10;;
16033;SDS011;8121;51.418;6.998;2024-01-11T01:02:11;37.17;;;13.80;;
16033;SDS011;8121;51.418;6.998;2024-01-11T01:07:14;34.63;;;12.20;;
16033;SDS011;8121;51.418;6.998;2024-01-11T01:12:15;31.07;;;11.20;;
16033;SDS011;8121;51.418;6.998;2024-01-11T01:17:17;36.47;;;13.80;;
16033;SDS011;8121;51.418;6.998;2024-01-11T01:22:20;30.13;;;12.90;;
16033;SDS011;8121;51.418;6.998;2024-01-11T01:27:21;29.53;;;13.53;;
16033;SDS011;8121;51.418;6.998;2024-01-11T01:32:23;35.67;;;12.93;;
16033;SDS011;8121;51.418;6.998;2024-01-11T01:37:26;33.60;;;12.50;;
16033;SDS011;8121;51.418;6.998;2024-01-11T01:42:27;45.73;;;16.60;;
16033;SDS011;8121;51.418;6.998;2024-01-11T01:47:29;33.33;;;12.03;;
16033;SDS011;8121;51.418;6.998;2024-01-11T01:52:32;25.10;;;11.10;;
16033;SDS011;8121;51.418;6.998;2024-01-11T01:57:34;33.17;;;14.20;;
16033;SDS011;8121;51.418;6.998;2024-01-11T02:02:36;32.20;;;11.17;;
16033;SDS011;8121;51.418;6.998;2024-01-11T02:07:40;19.67;;;9.73;;
16033;SDS011;8121;51.418;6.998;2024-01-11T02:12:41;32.87;;;10.87;;
16033;SDS011;8121;51.418;6.998;2024-01-11T02:17:43;43.67;;;13.77;;
16033;SDS011;8121;51.418;6.998;2024-01-11T02:22:46;30.60;;;15.07;;
16033;SDS011;8121;51.418;6.998;2024-01-11T02:27:50;32.37;;;14.27;;
16033;SDS011;8121;51.418;6.998;2024-01-11T02:32:52;28.33;;;13.07;;
16033;SDS011;8121;51.418;6.998;2024-01-11T02:37:53;25.20;;;12.10;;
16033;SDS011;8121;51.418;6.998;2024-01-11T02:42:57;45.17;;;15.90;;
16033;SDS011;8121;51.418;6.998;2024-01-11T02:47:58;35.10;;;14.13;;
16033;SDS011;8121;51.418;6.998;2024-01-11T02:53:00;39.00;;;14.70;;
16033;SDS011;8121;51.418;6.998;2024-01-11T02:58:03;28.07;;;14.07;;
16033;SDS011;8121;51.418;6.998;2024-01-11T03:03:04;31.30;;;13.50;;
16033;SDS011;8121;51.418;6.998;2024-01-11T03:08:06;40.10;;;17.17;;
16033;SDS011;8121;51.418;6.998;2024-01-11T03:13:09;38.10;;;15.00;;
16033;SDS011;8121;51.418;6.998;2024-01-11T03:18:11;42.77;;;16.53;;
16033;SDS011;8121;51.418;6.998;2024-01-11T03:23:12;34.40;;;13.23;;
16033;SDS011;8121;51.418;6.998;2024-01-11T03:28:15;36.63;;;14.90;;
16033;SDS011;8121;51.418;6.998;2024-01-11T03:33:17;28.00;;;13.40;;
16033;SDS011;8121;51.418;6.998;2024-01-11T03:38:18;24.40;;;10.87;;
16033;SDS011;8121;51.418;6.998;2024-01-11T03:43:21;33.80;;;13.50;;
16033;SDS011;8121;51.418;6.998;2024-01-11T03:48:23;31.87;;;15.23;;
16033;SDS011;8121;51.418;6.998;2024-01-11T03:53:25;37.73;;;12.40;;
16033;SDS011;8121;51.418;6.998;2024-01-11T03:58:28;36.97;;;15.17;;
16033;SDS011;8121;51.418;6.998;2024-01-11T04:03:30;33.90;;;14.10;;
16033;SDS011;8121;51.418;6.998;2024-01-11T04:08:31;26.10;;;11.77;;
16033;SDS011;8121;51.418;6.998;2024-01-11T04:13:34;31.33;;;14.23;;
16033;SDS011;8121;51.418;6.998;2024-01-11T04:18:36;38.97;;;13.73;;
16033;SDS011;8121;51.418;6.998;2024-01-11T04:23:37;27.37;;;12.20;;
16033;SDS011;8121;51.418;6.998;2024-01-11T04:28:40;33.27;;;14.63;;
16033;SDS011;8121;51.418;6.998;2024-01-11T04:33:42;34.20;;;12.00;;
16033;SDS011;8121;51.418;6.998;2024-01-11T04:38:43;29.53;;;13.47;;
16033;SDS011;8121;51.418;6.998;2024-01-11T04:43:47;24.13;;;11.77;;
16033;SDS011;8121;51.418;6.998;2024-01-11T04:48:48;41.23;;;14.07;;
16033;SDS011;8121;51.418;6.998;2024-01-11T04:53:50;32.60;;;13.97;;
16033;SDS011;8121;51.418;6.998;2024-01-11T04:58:53;37.47;;;14.30;;
16033;SDS011;8121;51.418;6.998;2024-01-11T05:03:55;41.13;;;15.90;;
16033;SDS011;8121;51.418;6.998;2024-01-11T05:08:56;32.67;;;14.37;;
16033;SDS011;8121;51.418;6.998;2024-01-11T05:13:59;28.70;;;14.10;;
16033;SDS011;8121;51.418;6.998;2024-01-11T05:19:01;77.37;;;13.13;;
16033;SDS011;8121;51.418;6.998;2024-01-11T05:24:03;25.37;;;12.03;;
16033;SDS011;8121;51.418;6.998;2024-01-11T05:29:06;51.63;;;14.10;;
16033;SDS011;8121;51.418;6.998;2024-01-11T05:34:07;33.00;;;15.10;;
16033;SDS011;8121;51.418;6.998;2024-01-11T05:39:12;40.17;;;16.43;;
16033;SDS011;8121;51.418;6.998;2024-01-11T05:44:15;27.67;;;11.90;;
16033;SDS011;8121;51.418;6.998;2024-01-11T05:49:16;29.80;;;15.30;;
16033;SDS011;8121;51.418;6.998;2024-01-11T05:54:18;24.93;;;13.47;;
16033;SDS011;8121;51.418;6.998;2024-01-11T05:59:20;44.37;;;14.40;;
16033;SDS011;8121;51.418;6.998;2024-01-11T06:04:22;27.53;;;12.10;;
16033;SDS011;8121;51.418;6.998;2024-01-11T06:09:23;20.40;;;9.57;;
16033;SDS011;8121;51.418;6.998;2024-01-11T06:14:26;36.40;;;14.27;;
16033;SDS011;8121;51.418;6.998;2024-01-11T06:19:28;38.13;;;15.63;;
16033;SDS011;8121;51.418;6.998;2024-01-11T06:24:29;29.53;;;14.50;;
16033;SDS011;8121;51.418;6.998;2024-01-11T06:29:32;41.77;;;15.80;;
16033;SDS011;8121;51.418;6.998;2024-01-11T06:34:34;34.40;;;14.00;;
16033;SDS011;8121;51.418;6.998;2024-01-11T06:39:35;31.87;;;13.13;;
16033;SDS011;8121;51.418;6.998;2024-01-11T06:44:38;42.97;;;15.53;;
16033;SDS011;8121;51.418;6.998;2024-01-11T06:49:40;30.23;;;13.27;;
16033;SDS011;8121;51.418;6.998;2024-01-11T06:54:42;31.33;;;14.40;;
16033;SDS011;8121;51.418;6.998;2024-01-11T06:59:45;49.70;;;16.70;;
16033;SDS011;8121;51.418;6.998;2024-01-11T07:04:47;33.97;;;14.33;;
16033;SDS011;8121;51.418;6.998;2024-01-11T07:09:49;44.23;;;15.83;;
16033;SDS011;8121;51.418;6.998;2024-01-11T07:14:52;36.27;;;15.70;;
16033;SDS011;8121;51.418;6.998;2024-01-11T07:19:53;32.30;;;15.43;;
16033;SDS011;8121;51.418;6.998;2024-01-11T07:24:55;39.83;;;16.80;;
16033;SDS011;8121;51.418;6.998;2024-01-11T07:29:58;43.87;;;18.30;;
16033;SDS011;8121;51.418;6.998;2024-01-11T07:34:59;38.57;;;14.77;;
16033;SDS011;8121;51.418;6.998;2024-01-11T07:40:01;37.20;;;13.40;;
16033;SDS011;8121;51.418;6.998;2024-01-11T07:45:06;28.23;;;13.87;;
16033;SDS011;8121;51.418;6.998;2024-01-11T07:50:10;54.60;;;14.50;;
16033;SDS011;8121;51.418;6.998;2024-01-11T07:55:12;29.10;;;11.97;;
16033;SDS011;8121;51.418;6.998;2024-01-11T08:00:21;20.90;;;9.83;;
16033;SDS011;8121;51.418;6.998;2024-01-11T08:05:23;25.53;;;11.20;;
16033;SDS011;8121;51.418;6.998;2024-01-11T08:10:26;27.07;;;11.07;;
16033;SDS011;8121;51.418;6.998;2024-01-11T08:15:29;53.93;;;16.20;;
16033;SDS011;8121;51.418;6.998;2024-01-11T08:20:34;36.10;;;15.87;;
16033;SDS011;8121;51.418;6.998;2024-01-11T08:25:35;23.07;;;11.50;;
16033;SDS011;8121;51.418;6.998;2024-01-11T08:30:38;34.83;;;12.77;;
16033;SDS011;8121;51.418;6.998;2024-01-11T08:35:42;48.13;;;15.23;;
16033;SDS011;8121;51.418;6.998;2024-01-11T08:40:44;45.27;;;16.40;;
16033;SDS011;8121;51.418;6.998;2024-01-11T08:45:47;48.33;;;17.37;;
16033;SDS011;8121;51.418;6.998;2024-01-11T08:50:48;41.40;;;16.63;;
16033;SDS011;8121;51.418;6.998;2024-01-11T08:55:50;48.57;;;15.67;;
16033;SDS011;8121;51.418;6.998;2024-01-11T09:00:54;47.27;;;17.17;;
16033;SDS011;8121;51.418;6.998;2024-01-11T09:06:04;47.30;;;16.60;;
16033;SDS011;8121;51.418;6.998;2024-01-11T09:11:20;20.40;;;10.23;;
16033;SDS011;8121;51.418;6.998;2024-01-11T09:16:33;47.80;;;17.10;;
16033;SDS011;8121;51.418;6.998;2024-01-11T09:21:36;41.97;;;15.30;;
16033;SDS011;8121;51.418;6.998;2024-01-11T09:26:37;26.90;;;12.20;;
16033;SDS011;8121;51.418;6.998;2024-01-11T09:31:40;28.63;;;12.67;;
16033;SDS011;8121;51.418;6.998;2024-01-11T09:36:42;54.47;;;17.57;;
16033;SDS011;8121;51.418;6.998;2024-01-11T09:41:47;49.13;;;19.20;;
16033;SDS011;8121;51.418;6.998;2024-01-11T09:46:54;40.27;;;16.47;;
16033;SDS011;8121;51.418;6.998;2024-01-11T09:51:55;43.07;;;17.80;;
16033;SDS011;8121;51.418;6.998;2024-01-11T09:56:57;49.97;;;18.90;;
16033;SDS011;8121;51.418;6.998;2024-01-11T10:02:02;37.37;;;13.63;;
16033;SDS011;8121;51.418;6.998;2024-01-11T10:07:08;45.83;;;16.90;;
16033;SDS011;8121;51.418;6.998;2024-01-11T10:12:10;40.37;;;19.67;;
16033;SDS011;8121;51.418;6.998;2024-01-11T10:22:57;48.23;;;19.03;;
16033;SDS011;8121;51.418;6.998;2024-01-11T10:27:59;50.47;;;17.00;;
16033;SDS011;8121;51.418;6.998;2024-01-11T10:33:01;50.27;;;18.57;;
16033;SDS011;8121;51.418;6.998;2024-01-11T10:38:04;56.93;;;18.80;;
16033;SDS011;8121;51.418;6.998;2024-01-11T10:43:10;45.23;;;19.40;;
16033;SDS011;8121;51.418;6.998;2024-01-11T10:48:13;41.00;;;17.90;;
16033;SDS011;8121;51.418;6.998;2024-01-11T10:53:21;39.13;;;18.63;;
16033;SDS011;8121;51.418;6.998;2024-01-11T10:58:27;40.70;;;17.20;;
16033;SDS011;8121;51.418;6.998;2024-01-11T11:03:29;35.53;;;14.10;;
16033;SDS011;8121;51.418;6.998;2024-01-11T11:08:33;50.87;;;18.83;;
16033;SDS011;8121;51.418;6.998;2024-01-11T11:13:34;42.63;;;17.67;;
16033;SDS011;8121;51.418;6.998;2024-01-11T11:18:36;40.10;;;16.13;;
16033;SDS011;8121;51.418;6.998;2024-01-11T11:23:39;32.00;;;12.63;;
16033;SDS011;8121;51.418;6.998;2024-01-11T11:28:41;46.70;;;15.83;;
16033;SDS011;8121;51.418;6.998;2024-01-11T11:33:42;44.97;;;18.73;;
16033;SDS011;8121;51.418;6.998;2024-01-11T11:38:45;40.63;;;17.67;;
16033;SDS011;8121;51.418;6.998;2024-01-11T11:43:48;45.00;;;18.67;;
16033;SDS011;8121;51.418;6.998;2024-01-11T11:48:50;42.87;;;17.40;;
16033;SDS011;8121;51.418;6.998;2024-01-11T11:53:56;38.20;;;17.20;;
16033;SDS011;8121;51.418;6.998;2024-01-11T11:58:58;24.80;;;11.53;;
16033;SDS011;8121;51.418;6.998;2024-01-11T12:04:01;31.60;;;14.73;;
16033;SDS011;8121;51.418;6.998;2024-01-11T12:09:04;32.07;;;13.23;;
16033;SDS011;8121;51.418;6.998;2024-01-11T12:14:05;39.37;;;14.93;;
16033;SDS011;8121;51.418;6.998;2024-01-11T12:19:07;70.37;;;16.10;;
16033;SDS011;8121;51.418;6.998;2024-01-11T12:24:10;39.03;;;16.00;;
16033;SDS011;8121;51.418;6.998;2024-01-11T12:29:12;39.83;;;17.90;;
16033;SDS011;8121;51.418;6.998;2024-01-11T12:34:14;31.57;;;15.10;;
16033;SDS011;8121;51.418;6.998;2024-01-11T12:39:18;36.20;;;15.93;;
16033;SDS011;8121;51.418;6.998;2024-01-11T12:44:22;33.83;;;14.27;;
16033;SDS011;8121;51.418;6.998;2024-01-11T12:49:24;30.07;;;13.30;;
16033;SDS011;8121;51.418;6.998;2024-01-11T12:54:27;41.53;;;15.17;;
16033;SDS011;8121;51.418;6.998;2024-01-11T12:59:29;36.77;;;13.20;;
16033;SDS011;8121;51.418;6.998;2024-01-11T13:04:30;34.17;;;13.30;;
16033;SDS011;8121;51.418;6.998;2024-01-11T13:09:33;31.30;;;13.97;;
16033;SDS011;8121;51.418;6.998;2024-01-11T13:14:35;26.50;;;13.40;;
16033;SDS011;8121;51.418;6.998;2024-01-11T13:19:39;25.67;;;12.33;;
16033;SDS011;8121;51.418;6.998;2024-01-11T13:24:43;27.73;;;10.40;;
16033;SDS011;8121;51.418;6.998;2024-01-11T13:29:44;33.17;;;11.63;;
16033;SDS011;8121;51.418;6.998;2024-01-11T13:34:46;38.23;;;12.90;;
16033;SDS011;8121;51.418;6.998;2024-01-11T13:39:49;18.60;;;10.53;;
16033;SDS011;8121;51.418;6.998;2024-01-11T13:44:50;29.13;;;12.20;;
16033;SDS011;8121;51.418;6.998;2024-01-11T13:49:52;39.40;;;13.13;;
16033;SDS011;8121;51.418;6.998;2024-01-11T13:54:56;35.27;;;12.70;;
16033;SDS011;8121;51.418;6.998;2024-01-11T13:59:57;26.90;;;11.97;;
16033;SDS011;8121;51.418;6.998;2024-01-11T14:04:59;29.70;;;12.63;;
16033;SDS011;8121;51.418;6.998;2024-01-11T14:10:02;25.20;;;9.77;;
16033;SDS011;8121;51.418;6.998;2024-01-11T14:15:06;26.43;;;12.63;;
16033;SDS011;8121;51.418;6.998;2024-01-11T14:20:11;44.37;;;13.37;;
16033;SDS011;8121;51.418;6.998;2024-01-11T14:25:15;22.37;;;11.20;;
16033;SDS011;8121;51.418;6.998;2024-01-11T14:30:17;29.27;;;12.07;;
16033;SDS011;8121;51.418;6.998;2024-01-11T14:35:18;30.30;;;13.60;;
16033;SDS011;8121;51.418;6.998;2024-01-11T14:40:21;22.10;;;7.40;;
16033;SDS011;8121;51.418;6.998;2024-01-11T14:45:24;28.93;;;12.83;;
16033;SDS011;8121;51.418;6.998;2024-01-11T14:50:27;23.20;;;11.67;;
16033;SDS011;8121;51.418;6.998;2024-01-11T14:55:30;32.80;;;13.07;;
16033;SDS011;8121;51.418;6.998;2024-01-11T15:00:32;31.23;;;11.60;;
16033;SDS011;8121;51.418;6.998;2024-01-11T15:05:34;29.47;;;13.00;;
16033;SDS011;8121;51.418;6.998;2024-01-11T15:10:37;27.40;;;12.13;;
16033;SDS011;8121;51.418;6.998;2024-01-11T15:15:39;24.50;;;10.73;;
16033;SDS011;8121;51.418;6.998;2024-01-11T15:20:41;19.97;;;10.30;;
16033;SDS011;8121;51.418;6.998;2024-01-11T15:25:44;21.13;;;8.33;;
16033;SDS011;8121;51.418;6.998;2024-01-11T15:30:45;20.47;;;10.20;;
16033;SDS011;8121;51.418;6.998;2024-01-11T15:35:48;23.77;;;9.57;;
16033;SDS011;8121;51.418;6.998;2024-01-11T15:40:51;31.07;;;8.73;;
16033;SDS011;8121;51.418;6.998;2024-01-11T15:45:53;22.50;;;10.40;;
16033;SDS011;8121;51.418;6.998;2024-01-11T15:50:55;23.63;;;9.30;;
16033;SDS011;8121;51.418;6.998;2024-01-11T15:55:58;28.77;;;6.40;;
16033;SDS011;8121;51.418;6.998;2024-01-11T16:01:02;13.97;;;6.50;;
16033;SDS011;8121;51.418;6.998;2024-01-11T16:06:05;13.50;;;5.37;;
16033;SDS011;8121;51.418;6.998;2024-01-11T16:11:08;6.47;;;4.30;;
16033;SDS011;8121;51.418;6.998;2024-01-11T16:16:09;9.13;;;4.57;;
16033;SDS011;8121;51.418;6.998;2024-01-11T16:21:11;6.20;;;4.47;;
16033;SDS011;8121;51.418;6.998;2024-01-11T16:26:14;7.80;;;4.20;;
16033;SDS011;8121;51.418;6.998;2024-01-11T16:31:15;13.37;;;3.50;;
16033;SDS011;8121;51.418;6.998;2024-01-11T16:36:17;5.27;;;3.80;;
16033;SDS011;8121;51.418;6.998;2024-01-11T16:41:21;11.07;;;5.23;;
16033;SDS011;8121;51.418;6.998;2024-01-11T16:46:24;10.47;;;3.90;;
16033;SDS011;8121;51.418;6.998;2024-01-11T16:51:26;5.63;;;3.97;;
16033;SDS011;8121;51.418;6.998;2024-01-11T16:56:29;6.50;;;4.80;;
16033;SDS011;8121;51.418;6.998;2024-01-11T17:01:31;7.00;;;4.50;;
16033;SDS011;8121;51.418;6.998;2024-01-11T17:06:36;6.17;;;3.83;;
16033;SDS011;8121;51.418;6.998;2024-01-11T17:11:40;6.43;;;4.53;;
16033;SDS011;8121;51.418;6.998;2024-01-11T17:16:42;8.67;;;5.93;;
16033;SDS011;8121;51.418;6.998;2024-01-11T17:21:43;5.00;;;4.23;;
16033;SDS011;8121;51.418;6.998;2024-01-11T17:26:46;7.10;;;4.93;;
16033;SDS011;8121;51.418;6.998;2024-01-11T17:31:48;6.03;;;5.20;;
16033;SDS011;8121;51.418;6.998;2024-01-11T17:36:50;4.67;;;3.80;;
16033;SDS011;8121;51.418;6.998;2024-01-11T17:41:53;7.13;;;4.67;;
16033;SDS011;8121;51.418;6.998;2024-01-11T17:46:54;5.93;;;4.60;;
16033;SDS011;8121;51.418;6.998;2024-01-11T17:51:56;13.23;;;6.43;;
16033;SDS011;8121;51.418;6.998;2024-01-11T17:56:59;8.87;;;5.83;;
16033;SDS011;8121;51.418;6.998;2024-01-11T18:02:01;12.13;;;7.20;;
16033;SDS011;8121;51.418;6.998;2024-01-11T18:07:02;7.00;;;5.20;;
16033;SDS011;8121;51.418;6.998;2024-01-11T18:12:06;10.43;;;6.37;;
16033;SDS011;8121;51.418;6.998;2024-01-11T18:17:08;7.00;;;5.27;;
16033;SDS011;8121;51.418;6.998;2024-01-11T18:22:09;12.97;;;7.67;;
16033;SDS011;8121;51.418;6.998;2024-01-11T18:27:13;8.80;;;5.03;;
16033;SDS011;8121;51.418;6.998;2024-01-11T18:32:15;15.13;;;7.43;;
16033;SDS011;8121;51.418;6.998;2024-01-11T18:37:16;7.70;;;5.60;;
16033;SDS011;8121;51.418;6.998;2024-01-11T18:42:21;18.50;;;9.63;;
16033;SDS011;8121;51.418;6.998;2024-01-11T18:47:23;12.80;;;6.53;;
16033;SDS011;8121;51.418;6.998;2024-01-11T18:52:25;14.53;;;6.00;;
16033;SDS011;8121;51.418;6.998;2024-01-11T18:57:28;21.97;;;10.40;;
16033;SDS011;8121;51.418;6.998;2024-01-11T19:02:30;22.70;;;10.57;;
16033;SDS011;8121;51.418;6.998;2024-01-11T19:07:31;11.53;;;7.60;;
16033;SDS011;8121;51.418;6.998;2024-01-11T19:12:34;13.67;;;7.00;;
16033;SDS011;8121;51.418;6.998;2024-01-11T19:17:36;16.60;;;10.17;;
16033;SDS011;8121;51.418;6.998;2024-01-11T19:22:37;13.47;;;8.07;;
16033;SDS011;8121;51.418;6.998;2024-01-11T19:27:40;12.97;;;6.50;;
16033;SDS011;8121;51.418;6.998;2024-01-11T19:32:42;21.03;;;9.63;;
16033;SDS011;8121;51.418;6.998;2024-01-11T19:37:43;14.60;;;7.30;;
16033;SDS011;8121;51.418;6.998;2024-01-11T19:42:46;20.10;;;9.50;;
16033;SDS011;8121;51.418;6.998;2024-01-11T19:47:48;21.00;;;12.27;;
16033;SDS011;8121;51.418;6.998;2024-01-11T19:52:49;31.63;;;14.77;;
16033;SDS011;8121;51.418;6.998;2024-01-11T19:57:53;29.50;;;12.47;;
16033;SDS011;8121;51.418;6.998;2024-01-11T20:02:56;17.60;;;9.30;;
16033;SDS011;8121;51.418;6.998;2024-01-11T20:07:58;13.70;;;9.10;;
16033;SDS011;8121;51.418;6.998;2024-01-11T20:13:01;15.27;;;9.43;;
16033;SDS011;8121;51.418;6.998;2024-01-11T20:18:02;19.33;;;11.77;;
16033;SDS011;8121;51.418;6.998;2024-01-11T20:23:08;30.07;;;14.90;;
16033;SDS011;8121;51.418;6.998;2024-01-11T20:28:10;20.33;;;10.97;;
16033;SDS011;8121;51.418;6.998;2024-01-11T20:33:12;21.10;;;11.67;;
16033;SDS011;8121;51.418;6.998;2024-01-11T20:38:14;28.93;;;15.10;;
16033;SDS011;8121;51.418;6.998;2024-01-11T20:43:18;26.70;;;14.43;;
16033;SDS011;8121;51.418;6.998;2024-01-11T20:48:19;27.13;;;12.53;;
16033;SDS011;8121;51.418;6.998;2024-01-11T20:53:21;42.80;;;17.60;;
16033;SDS011;8121;51.418;6.998;2024-01-11T20:58:24;22.23;;;10.80;;
16033;SDS011;8121;51.418;6.998;2024-01-11T21:03:25;16.60;;;9.37;;
16033;SDS011;8121;51.418;6.998;2024-01-11T21:08:27;22.40;;;13.00;;
16033;SDS011;8121;51.418;6.998;2024-01-11T21:13:30;17.00;;;9.40;;
16033;SDS011;8121;51.418;6.998;2024-01-11T21:18:32;37.00;;;16.40;;
16033;SDS011;8121;51.418;6.998;2024-01-11T21:23:33;39.27;;;17.27;;
16033;SDS011;8121;51.418;6.998;2024-01-11T21:28:37;30.30;;;14.37;;
16033;SDS011;8121;51.418;6.998;2024-01-11T21:33:41;34.63;;;16.37;;
16033;SDS011;8121;51.418;6.998;2024-01-11T21:38:43;26.80;;;12.73;;
16033;SDS011;8121;51.418;6.998;2024-01-11T21:43:46;26.23;;;13.33;;
16033;SDS011;8121;51.418;6.998;2024-01-11T21:48:48;22.10;;;11.13;;
16033;SDS011;8121;51.418;6.998;2024-01-11T21:53:50;15.57;;;8.60;;
16033;SDS011;8121;51.418;6.998;2024-01-11T21:58:58;15.40;;;9.90;;
16033;SDS011;8121;51.418;6.998;2024-01-11T22:04:00;33.50;;;14.97;;
16033;SDS011;8121;51.418;6.998;2024-01-11T22:09:02;27.10;;;12.33;;
16033;SDS011;8121;51.418;6.998;2024-01-11T22:14:06;25.73;;;13.00;;
16033;SDS011;8121;51.418;6.998;2024-01-11T22:19:08;36.90;;;15.30;;
16033;SDS011;8121;51.418;6.998;2024-01-11T22:24:10;28.90;;;14.37;;
16033;SDS011;8121;51.418;6.998;2024-01-11T22:29:12;29.23;;;13.67;;
16033;SDS011;8121;51.418;6.998;2024-01-11T22:34:14;25.47;;;13.17;;
16033;SDS011;8121;51.418;6.998;2024-01-11T22:39:16;26.63;;;14.40;;
16033;SDS011;8121;51.418;6.998;2024-01-11T22:44:20;32.53;;;14.27;;
16033;SDS011;8121;51.418;6.998;2024-01-11T22:49:21;37.17;;;16.03;;
16033;SDS011;8121;51.418;6.998;2024-01-11T22:54:23;30.23;;;14.97;;
16033;SDS011;8121;51.418;6.998;2024-01-11T22:59:26;25.70;;;12.80;;
16033;SDS011;8121;51.418;6.998;2024-01-11T23:04:28;39.23;;;16.77;;
16033;SDS011;8121;51.418;6.998;2024-01-11T23:09:30;44.27;;;17.70;;
16033;SDS011;8121;51.418;6.998;2024-01-11T23:14:33;42.13;;;17.73;;
16033;SDS011;8121;51.418;6.998;2024-01-11T23:19:35;23.43;;;11.90;;
16033;SDS011;8121;51.418;6.998;2024-01-11T23:24:36;35.70;;;16.00;;
16033;SDS011;8121;51.418;6.998;2024-01-11T23:29:39;44.97;;;15.50;;
16033;SDS011;8121;51.418;6.998;2024-01-11T23:34:41;40.97;;;15.23;;
16033;SDS011;8121;51.418;6.998;2024-01-11T23:39:42;23.27;;;11.50;;
16033;SDS011;8121;51.418;6.998;2024-01-11T23:44:46;43.03;;;17.50;;
16033;SDS011;8121;51.418;6.998;2024-01-11T23:49:48;38.90;;;17.20;;
16033;SDS011;8121;51.418;6.998;2024-01-11T23:54:49;20.20;;;10.93;;
16033;SDS011;8121;51.418;6.998;2024-01-11T23:59:53;37.27;;;16.50;;
